sensor_id;sensor_type;location;lat;lon;timestamp;P1;durP1;ratioP1;P2;durP2;ratioP2
20318;SDS011;10317;47.254;11.314;2023-06-01T00:01:58;7.15;;;5.70;;
20318;SDS011;10317;47.254;11.314;2023-06-01T00:04:24;7.07;;;6.13;;
20318;SDS011;10317;47.254;11.314;2023-06-01T00:06:50;5.53;;;4.97;;
20318;SDS011;10317;47.254;11.314;2023-06-01T00:09:15;9.82;;;5.93;;
20318;SDS011;10317;47.254;11.314;2023-06-01T00:11:42;9.10;;;6.10;;
20318;SDS011;10317;47.254;11.314;2023-06-01T00:14:08;6.15;;;5.18;;
20318;SDS011;10317;47.254;11.314;2023-06-01T00:16:34;9.13;;;6.45;;
20318;SDS011;10317;47.254;11.314;2023-06-01T00:19:01;9.75;;;6.05;;
20318;SDS011;10317;47.254;11.314;2023-06-01T00:21:28;6.40;;;5.22;;
20318;SDS011;10317;47.254;11.314;2023-06-01T00:23:56;6.43;;;5.82;;
20318;SDS011;10317;47.254;11.314;2023-06-01T00:26:22;7.28;;;5.85;;
20318;SDS011;10317;47.254;11.314;2023-06-01T00:28:48;7.38;;;6.38;;
20318;SDS011;10317;47.254;11.314;2023-06-01T00:31:14;5.72;;;5.20;;
20318;SDS011;10317;47.254;11.314;2023-06-01T00:33:39;6.18;;;5.53;;
20318;SDS011;10317;47.254;11.314;2023-06-01T00:36:05;6.78;;;5.80;;
20318;SDS011;10317;47.254;11.314;2023-06-01T00:38:31;9.73;;;6.00;;
20318;SDS011;10317;47.254;11.314;2023-06-01T00:40:57;7.30;;;5.95;;
20318;SDS011;10317;47.254;11.314;2023-06-01T00:43:22;10.15;;;5.75;;
20318;SDS011;10317;47.254;11.314;2023-06-01T00:45:48;7.30;;;5.63;;
20318;SDS011;10317;47.254;11.314;2023-06-01T00:48:14;8.55;;;5.85;;
20318;SDS011;10317;47.254;11.314;2023-06-01T00:50:41;7.22;;;5.90;;
20318;SDS011;10317;47.254;11.314;2023-06-01T00:53:09;9.60;;;6.93;;
20318;SDS011;10317;47.254;11.314;2023-06-01T00:55:39;11.93;;;6.43;;
20318;SDS011;10317;47.254;11.314;2023-06-01T00:58:06;7.47;;;6.10;;
20318;SDS011;10317;47.254;11.314;2023-06-01T01:00:31;8.65;;;5.93;;
20318;SDS011;10317;47.254;11.314;2023-06-01T01:02:57;6.63;;;5.97;;
20318;SDS011;10317;47.254;11.314;2023-06-01T01:05:25;8.73;;;5.72;;
20318;SDS011;10317;47.254;11.314;2023-06-01T01:07:59;8.98;;;6.63;;
20318;SDS011;10317;47.254;11.314;2023-06-01T01:10:33;10.73;;;6.50;;
20318;SDS011;10317;47.254;11.314;2023-06-01T01:13:10;7.32;;;5.90;;
20318;SDS011;10317;47.254;11.314;2023-06-01T01:15:58;9.95;;;6.65;;
20318;SDS011;10317;47.254;11.314;2023-06-01T01:18:33;8.25;;;6.35;;
20318;SDS011;10317;47.254;11.314;2023-06-01T01:21:19;6.97;;;6.05;;
20318;SDS011;10317;47.254;11.314;2023-06-01T01:26:46;11.27;;;7.35;;
20318;SDS011;10317;47.254;11.314;2023-06-01T01:29:17;8.45;;;7.03;;
20318;SDS011;10317;47.254;11.314;2023-06-01T01:31:47;8.75;;;6.63;;
20318;SDS011;10317;47.254;11.314;2023-06-01T01:34:15;8.50;;;6.18;;
20318;SDS011;10317;47.254;11.314;2023-06-01T01:36:44;11.80;;;7.07;;
20318;SDS011;10317;47.254;11.314;2023-06-01T01:39:11;12.15;;;7.32;;
20318;SDS011;10317;47.254;11.314;2023-06-01T01:41:36;10.93;;;7.05;;
20318;SDS011;10317;47.254;11.314;2023-06-01T01:44:02;10.15;;;7.97;;
20318;SDS011;10317;47.254;11.314;2023-06-01T01:46:30;8.63;;;6.43;;
20318;SDS011;10317;47.254;11.314;2023-06-01T01:49:07;7.55;;;6.05;;
20318;SDS011;10317;47.254;11.314;2023-06-01T01:54:44;10.32;;;6.80;;
20318;SDS011;10317;47.254;11.314;2023-06-01T01:57:14;10.80;;;6.68;;
20318;SDS011;10317;47.254;11.314;2023-06-01T01:59:41;12.70;;;7.13;;
20318;SDS011;10317;47.254;11.314;2023-06-01T02:02:08;8.38;;;6.88;;
20318;SDS011;10317;47.254;11.314;2023-06-01T02:04:38;7.38;;;6.63;;
20318;SDS011;10317;47.254;11.314;2023-06-01T02:07:05;8.65;;;6.57;;
20318;SDS011;10317;47.254;11.314;2023-06-01T02:09:31;8.35;;;7.00;;
20318;SDS011;10317;47.254;11.314;2023-06-01T02:11:56;8.13;;;6.25;;
20318;SDS011;10317;47.254;11.314;2023-06-01T02:14:22;10.43;;;7.05;;
20318;SDS011;10317;47.254;11.314;2023-06-01T02:16:48;8.27;;;6.50;;
20318;SDS011;10317;47.254;11.314;2023-06-01T02:19:13;8.07;;;6.40;;
20318;SDS011;10317;47.254;11.314;2023-06-01T02:21:40;10.70;;;6.68;;
20318;SDS011;10317;47.254;11.314;2023-06-01T02:24:07;8.52;;;7.70;;
20318;SDS011;10317;47.254;11.314;2023-06-01T02:26:34;10.57;;;6.93;;
20318;SDS011;10317;47.254;11.314;2023-06-01T02:29:00;11.75;;;7.40;;
20318;SDS011;10317;47.254;11.314;2023-06-01T02:31:32;8.55;;;6.80;;
20318;SDS011;10317;47.254;11.314;2023-06-01T02:33:59;7.72;;;6.40;;
20318;SDS011;10317;47.254;11.314;2023-06-01T02:36:25;7.85;;;6.35;;
20318;SDS011;10317;47.254;11.314;2023-06-01T02:38:53;8.35;;;7.13;;
20318;SDS011;10317;47.254;11.314;2023-06-01T02:41:18;10.50;;;7.22;;
20318;SDS011;10317;47.254;11.314;2023-06-01T02:43:44;9.30;;;6.78;;
20318;SDS011;10317;47.254;11.314;2023-06-01T02:46:10;9.13;;;7.72;;
20318;SDS011;10317;47.254;11.314;2023-06-01T02:48:35;7.70;;;6.63;;
20318;SDS011;10317;47.254;11.314;2023-06-01T02:51:01;9.13;;;7.70;;
20318;SDS011;10317;47.254;11.314;2023-06-01T02:53:27;11.98;;;8.05;;
20318;SDS011;10317;47.254;11.314;2023-06-01T02:55:53;7.72;;;6.60;;
20318;SDS011;10317;47.254;11.314;2023-06-01T02:58:19;13.68;;;7.93;;
20318;SDS011;10317;47.254;11.314;2023-06-01T03:00:45;9.55;;;7.28;;
20318;SDS011;10317;47.254;11.314;2023-06-01T03:03:12;9.20;;;6.20;;
20318;SDS011;10317;47.254;11.314;2023-06-01T03:05:37;8.48;;;6.93;;
20318;SDS011;10317;47.254;11.314;2023-06-01T03:08:04;10.63;;;7.63;;
20318;SDS011;10317;47.254;11.314;2023-06-01T03:10:33;12.27;;;7.47;;
20318;SDS011;10317;47.254;11.314;2023-06-01T03:12:59;8.43;;;6.78;;
20318;SDS011;10317;47.254;11.314;2023-06-01T03:15:25;8.40;;;6.65;;
20318;SDS011;10317;47.254;11.314;2023-06-01T03:17:52;9.23;;;7.00;;
20318;SDS011;10317;47.254;11.314;2023-06-01T03:20:18;8.75;;;7.18;;
20318;SDS011;10317;47.254;11.314;2023-06-01T03:22:44;7.60;;;6.90;;
20318;SDS011;10317;47.254;11.314;2023-06-01T03:25:10;8.43;;;7.53;;
20318;SDS011;10317;47.254;11.314;2023-06-01T03:27:37;9.50;;;7.20;;
20318;SDS011;10317;47.254;11.314;2023-06-01T03:30:04;9.07;;;6.78;;
20318;SDS011;10317;47.254;11.314;2023-06-01T03:32:34;10.23;;;7.45;;
20318;SDS011;10317;47.254;11.314;2023-06-01T03:35:02;7.13;;;6.35;;
20318;SDS011;10317;47.254;11.314;2023-06-01T03:37:29;7.28;;;6.57;;
20318;SDS011;10317;47.254;11.314;2023-06-01T03:39:54;7.82;;;6.80;;
20318;SDS011;10317;47.254;11.314;2023-06-01T03:42:20;8.52;;;7.13;;
20318;SDS011;10317;47.254;11.314;2023-06-01T03:44:45;7.82;;;6.28;;
20318;SDS011;10317;47.254;11.314;2023-06-01T03:47:11;9.60;;;6.43;;
20318;SDS011;10317;47.254;11.314;2023-06-01T03:49:39;7.95;;;6.38;;
20318;SDS011;10317;47.254;11.314;2023-06-01T03:52:05;9.68;;;7.18;;
20318;SDS011;10317;47.254;11.314;2023-06-01T03:54:31;9.30;;;6.00;;
20318;SDS011;10317;47.254;11.314;2023-06-01T03:56:56;9.82;;;6.78;;
20318;SDS011;10317;47.254;11.314;2023-06-01T03:59:22;7.38;;;6.68;;
20318;SDS011;10317;47.254;11.314;2023-06-01T04:01:49;12.80;;;6.75;;
20318;SDS011;10317;47.254;11.314;2023-06-01T04:04:14;9.25;;;7.60;;
20318;SDS011;10317;47.254;11.314;2023-06-01T04:06:42;9.30;;;7.57;;
20318;SDS011;10317;47.254;11.314;2023-06-01T04:09:10;9.48;;;7.25;;
20318;SDS011;10317;47.254;11.314;2023-06-01T04:11:38;10.73;;;7.10;;
20318;SDS011;10317;47.254;11.314;2023-06-01T04:14:04;11.40;;;8.80;;
20318;SDS011;10317;47.254;11.314;2023-06-01T04:16:30;9.88;;;6.43;;
20318;SDS011;10317;47.254;11.314;2023-06-01T04:18:56;8.32;;;6.63;;
20318;SDS011;10317;47.254;11.314;2023-06-01T04:21:22;12.05;;;10.75;;
20318;SDS011;10317;47.254;11.314;2023-06-01T04:23:48;10.00;;;8.20;;
20318;SDS011;10317;47.254;11.314;2023-06-01T04:26:15;8.95;;;7.25;;
20318;SDS011;10317;47.254;11.314;2023-06-01T04:28:40;8.25;;;6.72;;
20318;SDS011;10317;47.254;11.314;2023-06-01T04:31:14;7.40;;;6.70;;
20318;SDS011;10317;47.254;11.314;2023-06-01T04:33:45;7.68;;;6.88;;
20318;SDS011;10317;47.254;11.314;2023-06-01T04:36:17;12.82;;;7.03;;
20318;SDS011;10317;47.254;11.314;2023-06-01T04:38:46;8.88;;;7.43;;
20318;SDS011;10317;47.254;11.314;2023-06-01T04:41:21;10.50;;;7.78;;
20318;SDS011;10317;47.254;11.314;2023-06-01T04:43:48;9.80;;;7.45;;
20318;SDS011;10317;47.254;11.314;2023-06-01T04:46:18;9.40;;;7.00;;
20318;SDS011;10317;47.254;11.314;2023-06-01T04:48:51;9.23;;;7.15;;
20318;SDS011;10317;47.254;11.314;2023-06-01T04:51:18;8.75;;;6.82;;
20318;SDS011;10317;47.254;11.314;2023-06-01T04:53:48;9.45;;;8.38;;
20318;SDS011;10317;47.254;11.314;2023-06-01T04:56:20;8.25;;;7.45;;
20318;SDS011;10317;47.254;11.314;2023-06-01T04:58:50;10.43;;;7.70;;
20318;SDS011;10317;47.254;11.314;2023-06-01T05:01:17;11.77;;;8.18;;
20318;SDS011;10317;47.254;11.314;2023-06-01T05:03:43;12.95;;;8.60;;
20318;SDS011;10317;47.254;11.314;2023-06-01T05:06:10;9.23;;;8.00;;
20318;SDS011;10317;47.254;11.314;2023-06-01T05:08:37;12.63;;;8.65;;
20318;SDS011;10317;47.254;11.314;2023-06-01T05:11:04;10.63;;;7.78;;
20318;SDS011;10317;47.254;11.314;2023-06-01T05:13:31;14.13;;;9.32;;
20318;SDS011;10317;47.254;11.314;2023-06-01T05:15:58;14.10;;;8.65;;
20318;SDS011;10317;47.254;11.314;2023-06-01T05:18:24;11.25;;;9.60;;
20318;SDS011;10317;47.254;11.314;2023-06-01T05:20:50;12.98;;;9.52;;
20318;SDS011;10317;47.254;11.314;2023-06-01T05:23:16;9.43;;;8.10;;
20318;SDS011;10317;47.254;11.314;2023-06-01T05:25:42;9.90;;;7.40;;
20318;SDS011;10317;47.254;11.314;2023-06-01T05:28:07;11.45;;;7.13;;
20318;SDS011;10317;47.254;11.314;2023-06-01T05:30:33;11.40;;;8.43;;
20318;SDS011;10317;47.254;11.314;2023-06-01T05:32:59;9.13;;;7.13;;
20318;SDS011;10317;47.254;11.314;2023-06-01T05:35:24;10.32;;;7.43;;
20318;SDS011;10317;47.254;11.314;2023-06-01T05:37:50;9.93;;;7.65;;
20318;SDS011;10317;47.254;11.314;2023-06-01T05:40:16;8.82;;;6.57;;
20318;SDS011;10317;47.254;11.314;2023-06-01T05:42:41;11.13;;;6.72;;
20318;SDS011;10317;47.254;11.314;2023-06-01T05:45:07;8.43;;;6.25;;
20318;SDS011;10317;47.254;11.314;2023-06-01T05:47:34;11.05;;;6.72;;
20318;SDS011;10317;47.254;11.314;2023-06-01T05:50:00;10.18;;;6.55;;
20318;SDS011;10317;47.254;11.314;2023-06-01T05:52:25;7.85;;;6.15;;
20318;SDS011;10317;47.254;11.314;2023-06-01T05:54:51;13.90;;;7.07;;
20318;SDS011;10317;47.254;11.314;2023-06-01T05:57:18;8.68;;;6.82;;
20318;SDS011;10317;47.254;11.314;2023-06-01T05:59:45;7.32;;;6.38;;
20318;SDS011;10317;47.254;11.314;2023-06-01T06:02:11;9.65;;;6.78;;
20318;SDS011;10317;47.254;11.314;2023-06-01T06:04:38;8.07;;;6.15;;
20318;SDS011;10317;47.254;11.314;2023-06-01T06:07:04;8.35;;;6.85;;
20318;SDS011;10317;47.254;11.314;2023-06-01T06:09:30;10.73;;;6.90;;
20318;SDS011;10317;47.254;11.314;2023-06-01T06:11:56;7.38;;;6.35;;
20318;SDS011;10317;47.254;11.314;2023-06-01T06:14:22;8.07;;;5.20;;
20318;SDS011;10317;47.254;11.314;2023-06-01T06:16:48;9.00;;;5.68;;
20318;SDS011;10317;47.254;11.314;2023-06-01T06:19:14;8.40;;;5.85;;
20318;SDS011;10317;47.254;11.314;2023-06-01T06:21:41;9.20;;;6.38;;
20318;SDS011;10317;47.254;11.314;2023-06-01T06:24:06;9.68;;;5.80;;
20318;SDS011;10317;47.254;11.314;2023-06-01T06:26:32;8.20;;;5.82;;
20318;SDS011;10317;47.254;11.314;2023-06-01T06:28:58;8.77;;;6.00;;
20318;SDS011;10317;47.254;11.314;2023-06-01T06:31:23;7.68;;;5.32;;
20318;SDS011;10317;47.254;11.314;2023-06-01T06:33:49;6.82;;;5.47;;
20318;SDS011;10317;47.254;11.314;2023-06-01T06:36:16;6.35;;;5.20;;
20318;SDS011;10317;47.254;11.314;2023-06-01T06:38:42;6.32;;;5.65;;
20318;SDS011;10317;47.254;11.314;2023-06-01T06:41:08;6.90;;;5.40;;
20318;SDS011;10317;47.254;11.314;2023-06-01T06:43:33;7.60;;;5.82;;
20318;SDS011;10317;47.254;11.314;2023-06-01T06:45:59;6.60;;;5.22;;
20318;SDS011;10317;47.254;11.314;2023-06-01T06:48:25;7.68;;;5.35;;
20318;SDS011;10317;47.254;11.314;2023-06-01T06:50:50;8.98;;;5.88;;
20318;SDS011;10317;47.254;11.314;2023-06-01T06:53:16;11.65;;;5.63;;
20318;SDS011;10317;47.254;11.314;2023-06-01T06:55:43;8.48;;;5.25;;
20318;SDS011;10317;47.254;11.314;2023-06-01T06:58:09;6.03;;;5.07;;
20318;SDS011;10317;47.254;11.314;2023-06-01T07:00:36;5.45;;;4.80;;
20318;SDS011;10317;47.254;11.314;2023-06-01T07:03:02;8.13;;;5.70;;
20318;SDS011;10317;47.254;11.314;2023-06-01T07:05:28;6.63;;;4.78;;
20318;SDS011;10317;47.254;11.314;2023-06-01T07:07:54;8.68;;;5.57;;
20318;SDS011;10317;47.254;11.314;2023-06-01T07:10:20;9.77;;;5.55;;
20318;SDS011;10317;47.254;11.314;2023-06-01T07:12:46;7.38;;;5.38;;
20318;SDS011;10317;47.254;11.314;2023-06-01T07:15:11;11.85;;;5.65;;
20318;SDS011;10317;47.254;11.314;2023-06-01T07:17:37;9.43;;;5.40;;
20318;SDS011;10317;47.254;11.314;2023-06-01T07:20:03;7.78;;;4.78;;
20318;SDS011;10317;47.254;11.314;2023-06-01T07:22:31;7.13;;;5.30;;
20318;SDS011;10317;47.254;11.314;2023-06-01T07:25:00;5.38;;;4.88;;
20318;SDS011;10317;47.254;11.314;2023-06-01T07:27:25;9.68;;;5.18;;
20318;SDS011;10317;47.254;11.314;2023-06-01T07:29:51;6.38;;;4.90;;
20318;SDS011;10317;47.254;11.314;2023-06-01T07:32:20;8.75;;;5.03;;
20318;SDS011;10317;47.254;11.314;2023-06-01T07:34:50;6.55;;;5.28;;
20318;SDS011;10317;47.254;11.314;2023-06-01T07:37:16;10.07;;;5.68;;
20318;SDS011;10317;47.254;11.314;2023-06-01T07:39:47;5.63;;;5.07;;
20318;SDS011;10317;47.254;11.314;2023-06-01T07:42:14;12.07;;;5.90;;
20318;SDS011;10317;47.254;11.314;2023-06-01T07:44:40;6.00;;;4.60;;
20318;SDS011;10317;47.254;11.314;2023-06-01T07:47:05;7.07;;;5.03;;
20318;SDS011;10317;47.254;11.314;2023-06-01T07:49:31;6.70;;;5.50;;
20318;SDS011;10317;47.254;11.314;2023-06-01T07:52:00;5.68;;;3.75;;
20318;SDS011;10317;47.254;11.314;2023-06-01T07:54:26;4.82;;;4.22;;
20318;SDS011;10317;47.254;11.314;2023-06-01T07:56:52;6.10;;;4.38;;
20318;SDS011;10317;47.254;11.314;2023-06-01T07:59:18;6.82;;;4.70;;
20318;SDS011;10317;47.254;11.314;2023-06-01T08:01:46;4.90;;;4.35;;
20318;SDS011;10317;47.254;11.314;2023-06-01T08:04:13;4.97;;;4.28;;
20318;SDS011;10317;47.254;11.314;2023-06-01T08:06:39;6.03;;;5.22;;
20318;SDS011;10317;47.254;11.314;2023-06-01T08:09:06;10.98;;;4.38;;
20318;SDS011;10317;47.254;11.314;2023-06-01T08:11:32;4.82;;;4.25;;
20318;SDS011;10317;47.254;11.314;2023-06-01T08:13:58;4.57;;;4.10;;
20318;SDS011;10317;47.254;11.314;2023-06-01T08:16:29;4.28;;;3.90;;
20318;SDS011;10317;47.254;11.314;2023-06-01T08:18:55;5.03;;;4.40;;
20318;SDS011;10317;47.254;11.314;2023-06-01T08:21:22;5.03;;;4.30;;
20318;SDS011;10317;47.254;11.314;2023-06-01T08:23:50;5.60;;;4.75;;
20318;SDS011;10317;47.254;11.314;2023-06-01T08:26:17;6.28;;;4.82;;
20318;SDS011;10317;47.254;11.314;2023-06-01T08:28:44;12.55;;;5.05;;
20318;SDS011;10317;47.254;11.314;2023-06-01T08:31:17;5.00;;;4.50;;
20318;SDS011;10317;47.254;11.314;2023-06-01T08:33:46;5.18;;;4.50;;
20318;SDS011;10317;47.254;11.314;2023-06-01T08:36:12;6.65;;;4.45;;
20318;SDS011;10317;47.254;11.314;2023-06-01T08:38:39;4.00;;;3.60;;
20318;SDS011;10317;47.254;11.314;2023-06-01T08:41:10;5.45;;;4.65;;
20318;SDS011;10317;47.254;11.314;2023-06-01T08:43:43;7.28;;;4.40;;
20318;SDS011;10317;47.254;11.314;2023-06-01T08:46:15;4.65;;;4.07;;
20318;SDS011;10317;47.254;11.314;2023-06-01T08:48:42;5.20;;;4.18;;
20318;SDS011;10317;47.254;11.314;2023-06-01T08:51:08;6.70;;;4.75;;
20318;SDS011;10317;47.254;11.314;2023-06-01T08:53:35;6.30;;;4.20;;
20318;SDS011;10317;47.254;11.314;2023-06-01T08:56:03;5.82;;;4.63;;
20318;SDS011;10317;47.254;11.314;2023-06-01T08:58:30;5.43;;;4.35;;
20318;SDS011;10317;47.254;11.314;2023-06-01T09:00:55;7.40;;;4.65;;
20318;SDS011;10317;47.254;11.314;2023-06-01T09:03:23;5.00;;;4.25;;
20318;SDS011;10317;47.254;11.314;2023-06-01T09:05:50;5.72;;;5.15;;
20318;SDS011;10317;47.254;11.314;2023-06-01T09:08:15;3.83;;;3.53;;
20318;SDS011;10317;47.254;11.314;2023-06-01T09:10:41;6.25;;;4.68;;
20318;SDS011;10317;47.254;11.314;2023-06-01T09:13:07;5.60;;;4.90;;
20318;SDS011;10317;47.254;11.314;2023-06-01T09:15:33;8.98;;;5.95;;
20318;SDS011;10317;47.254;11.314;2023-06-01T09:18:08;5.72;;;4.78;;
20318;SDS011;10317;47.254;11.314;2023-06-01T09:20:37;7.45;;;4.50;;
20318;SDS011;10317;47.254;11.314;2023-06-01T09:23:04;5.45;;;4.22;;
20318;SDS011;10317;47.254;11.314;2023-06-01T09:25:30;5.30;;;4.82;;
20318;SDS011;10317;47.254;11.314;2023-06-01T09:27:58;7.47;;;4.55;;
20318;SDS011;10317;47.254;11.314;2023-06-01T09:30:26;5.10;;;4.47;;
20318;SDS011;10317;47.254;11.314;2023-06-01T09:33:09;5.85;;;3.88;;
20318;SDS011;10317;47.254;11.314;2023-06-01T09:35:42;4.03;;;3.63;;
20318;SDS011;10317;47.254;11.314;2023-06-01T09:38:20;6.25;;;3.70;;
20318;SDS011;10317;47.254;11.314;2023-06-01T09:40:58;5.75;;;4.18;;
20318;SDS011;10317;47.254;11.314;2023-06-01T09:43:24;5.63;;;4.68;;
20318;SDS011;10317;47.254;11.314;2023-06-01T09:46:10;6.10;;;3.90;;
20318;SDS011;10317;47.254;11.314;2023-06-01T09:48:39;6.32;;;4.10;;
20318;SDS011;10317;47.254;11.314;2023-06-01T09:51:25;5.40;;;3.78;;
20318;SDS011;10317;47.254;11.314;2023-06-01T09:53:54;5.90;;;4.07;;
20318;SDS011;10317;47.254;11.314;2023-06-01T09:56:19;5.47;;;4.60;;
20318;SDS011;10317;47.254;11.314;2023-06-01T09:58:45;4.72;;;4.28;;
20318;SDS011;10317;47.254;11.314;2023-06-01T10:01:11;4.43;;;4.00;;
20318;SDS011;10317;47.254;11.314;2023-06-01T10:03:41;4.93;;;4.28;;
20318;SDS011;10317;47.254;11.314;2023-06-01T10:06:10;7.82;;;4.45;;
20318;SDS011;10317;47.254;11.314;2023-06-01T10:08:36;4.93;;;4.00;;
20318;SDS011;10317;47.254;11.314;2023-06-01T10:11:03;7.90;;;4.50;;
20318;SDS011;10317;47.254;11.314;2023-06-01T10:13:29;5.43;;;4.07;;
20318;SDS011;10317;47.254;11.314;2023-06-01T10:15:56;5.05;;;4.07;;
20318;SDS011;10317;47.254;11.314;2023-06-01T10:18:22;6.07;;;4.40;;
20318;SDS011;10317;47.254;11.314;2023-06-01T10:20:48;4.63;;;3.85;;
20318;SDS011;10317;47.254;11.314;2023-06-01T10:23:14;5.40;;;3.53;;
20318;SDS011;10317;47.254;11.314;2023-06-01T10:25:41;6.90;;;4.22;;
20318;SDS011;10317;47.254;11.314;2023-06-01T10:28:11;6.22;;;3.70;;
20318;SDS011;10317;47.254;11.314;2023-06-01T10:30:38;4.55;;;4.10;;
20318;SDS011;10317;47.254;11.314;2023-06-01T10:33:05;5.35;;;3.40;;
20318;SDS011;10317;47.254;11.314;2023-06-01T10:40:39;5.28;;;3.92;;
20318;SDS011;10317;47.254;11.314;2023-06-01T10:43:06;5.55;;;3.20;;
20318;SDS011;10317;47.254;11.314;2023-06-01T10:48:02;3.97;;;2.85;;
20318;SDS011;10317;47.254;11.314;2023-06-01T10:50:29;4.65;;;4.00;;
20318;SDS011;10317;47.254;11.314;2023-06-01T10:52:55;5.28;;;4.18;;
20318;SDS011;10317;47.254;11.314;2023-06-01T10:55:22;7.85;;;4.22;;
20318;SDS011;10317;47.254;11.314;2023-06-01T10:57:49;4.63;;;3.30;;
20318;SDS011;10317;47.254;11.314;2023-06-01T11:00:17;4.85;;;4.18;;
20318;SDS011;10317;47.254;11.314;2023-06-01T11:02:57;7.30;;;4.43;;
20318;SDS011;10317;47.254;11.314;2023-06-01T11:05:34;3.45;;;3.15;;
20318;SDS011;10317;47.254;11.314;2023-06-01T11:08:04;6.65;;;4.18;;
20318;SDS011;10317;47.254;11.314;2023-06-01T11:13:16;4.00;;;3.28;;
20318;SDS011;10317;47.254;11.314;2023-06-01T11:21:29;4.65;;;4.00;;
20318;SDS011;10317;47.254;11.314;2023-06-01T11:24:14;7.03;;;3.90;;
20318;SDS011;10317;47.254;11.314;2023-06-01T11:26:42;5.03;;;3.00;;
20318;SDS011;10317;47.254;11.314;2023-06-01T11:29:13;4.80;;;4.15;;
20318;SDS011;10317;47.254;11.314;2023-06-01T11:31:40;6.85;;;4.15;;
20318;SDS011;10317;47.254;11.314;2023-06-01T11:34:09;4.95;;;3.78;;
20318;SDS011;10317;47.254;11.314;2023-06-01T11:36:36;4.90;;;4.10;;
20318;SDS011;10317;47.254;11.314;2023-06-01T11:39:03;5.55;;;4.53;;
20318;SDS011;10317;47.254;11.314;2023-06-01T11:41:33;5.18;;;3.90;;
20318;SDS011;10317;47.254;11.314;2023-06-01T11:44:00;4.38;;;3.97;;
20318;SDS011;10317;47.254;11.314;2023-06-01T11:46:26;3.75;;;3.38;;
20318;SDS011;10317;47.254;11.314;2023-06-01T11:51:36;4.35;;;3.95;;
20318;SDS011;10317;47.254;11.314;2023-06-01T11:54:07;4.10;;;3.78;;
20318;SDS011;10317;47.254;11.314;2023-06-01T11:56:34;6.40;;;3.53;;
20318;SDS011;10317;47.254;11.314;2023-06-01T11:59:04;10.50;;;4.60;;
20318;SDS011;10317;47.254;11.314;2023-06-01T12:01:45;4.90;;;3.72;;
20318;SDS011;10317;47.254;11.314;2023-06-01T12:04:32;7.88;;;4.38;;
20318;SDS011;10317;47.254;11.314;2023-06-01T12:07:04;5.90;;;3.67;;
20318;SDS011;10317;47.254;11.314;2023-06-01T12:09:30;4.65;;;4.07;;
20318;SDS011;10317;47.254;11.314;2023-06-01T12:11:57;6.38;;;3.92;;
20318;SDS011;10317;47.254;11.314;2023-06-01T12:14:24;5.55;;;3.65;;
20318;SDS011;10317;47.254;11.314;2023-06-01T12:16:59;4.82;;;3.63;;
20318;SDS011;10317;47.254;11.314;2023-06-01T12:19:27;4.60;;;3.75;;
20318;SDS011;10317;47.254;11.314;2023-06-01T12:21:54;4.78;;;3.65;;
20318;SDS011;10317;47.254;11.314;2023-06-01T12:24:31;4.22;;;3.83;;
20318;SDS011;10317;47.254;11.314;2023-06-01T12:26:58;4.32;;;3.92;;
20318;SDS011;10317;47.254;11.314;2023-06-01T12:29:40;4.70;;;3.55;;
20318;SDS011;10317;47.254;11.314;2023-06-01T12:32:07;4.97;;;4.03;;
20318;SDS011;10317;47.254;11.314;2023-06-01T12:34:38;4.72;;;4.20;;
20318;SDS011;10317;47.254;11.314;2023-06-01T12:37:11;5.53;;;4.18;;
20318;SDS011;10317;47.254;11.314;2023-06-01T12:39:53;5.75;;;3.47;;
20318;SDS011;10317;47.254;11.314;2023-06-01T12:42:33;4.13;;;3.40;;
20318;SDS011;10317;47.254;11.314;2023-06-01T12:45:02;4.75;;;3.85;;
20318;SDS011;10317;47.254;11.314;2023-06-01T12:47:37;6.03;;;3.72;;
20318;SDS011;10317;47.254;11.314;2023-06-01T12:50:05;4.15;;;3.75;;
20318;SDS011;10317;47.254;11.314;2023-06-01T12:52:32;4.97;;;3.80;;
20318;SDS011;10317;47.254;11.314;2023-06-01T12:54:57;4.25;;;3.67;;
20318;SDS011;10317;47.254;11.314;2023-06-01T12:57:23;5.43;;;4.25;;
20318;SDS011;10317;47.254;11.314;2023-06-01T12:59:49;3.90;;;3.50;;
20318;SDS011;10317;47.254;11.314;2023-06-01T13:02:14;5.22;;;3.97;;
20318;SDS011;10317;47.254;11.314;2023-06-01T13:04:40;4.75;;;4.20;;
20318;SDS011;10317;47.254;11.314;2023-06-01T13:07:07;5.40;;;4.00;;
20318;SDS011;10317;47.254;11.314;2023-06-01T13:09:32;3.83;;;3.53;;
20318;SDS011;10317;47.254;11.314;2023-06-01T13:11:58;4.80;;;4.03;;
20318;SDS011;10317;47.254;11.314;2023-06-01T13:14:24;4.57;;;3.75;;
20318;SDS011;10317;47.254;11.314;2023-06-01T13:16:50;6.60;;;4.20;;
20318;SDS011;10317;47.254;11.314;2023-06-01T13:19:16;5.32;;;4.07;;
20318;SDS011;10317;47.254;11.314;2023-06-01T13:21:42;7.28;;;4.57;;
20318;SDS011;10317;47.254;11.314;2023-06-01T13:24:07;7.75;;;4.65;;
20318;SDS011;10317;47.254;11.314;2023-06-01T13:26:35;4.22;;;3.83;;
20318;SDS011;10317;47.254;11.314;2023-06-01T13:29:01;5.65;;;3.92;;
20318;SDS011;10317;47.254;11.314;2023-06-01T13:31:31;6.55;;;4.05;;
20318;SDS011;10317;47.254;11.314;2023-06-01T13:33:57;7.20;;;4.38;;
20318;SDS011;10317;47.254;11.314;2023-06-01T13:36:24;4.45;;;4.00;;
20318;SDS011;10317;47.254;11.314;2023-06-01T13:38:49;3.90;;;3.50;;
20318;SDS011;10317;47.254;11.314;2023-06-01T13:41:15;3.83;;;3.40;;
20318;SDS011;10317;47.254;11.314;2023-06-01T13:43:41;5.18;;;3.50;;
20318;SDS011;10317;47.254;11.314;2023-06-01T13:46:06;4.55;;;3.42;;
20318;SDS011;10317;47.254;11.314;2023-06-01T13:48:35;4.38;;;3.90;;
20318;SDS011;10317;47.254;11.314;2023-06-01T13:51:02;5.60;;;4.20;;
20318;SDS011;10317;47.254;11.314;2023-06-01T13:53:28;4.38;;;3.95;;
20318;SDS011;10317;47.254;11.314;2023-06-01T13:55:54;6.32;;;3.28;;
20318;SDS011;10317;47.254;11.314;2023-06-01T13:58:20;4.68;;;3.60;;
20318;SDS011;10317;47.254;11.314;2023-06-01T14:00:45;3.13;;;2.85;;
20318;SDS011;10317;47.254;11.314;2023-06-01T14:03:11;5.00;;;3.55;;
20318;SDS011;10317;47.254;11.314;2023-06-01T14:05:37;3.53;;;3.22;;
20318;SDS011;10317;47.254;11.314;2023-06-01T14:08:03;4.57;;;3.20;;
20318;SDS011;10317;47.254;11.314;2023-06-01T14:10:30;2.95;;;2.63;;
20318;SDS011;10317;47.254;11.314;2023-06-01T14:12:56;3.22;;;2.83;;
20318;SDS011;10317;47.254;11.314;2023-06-01T14:15:22;6.55;;;3.00;;
20318;SDS011;10317;47.254;11.314;2023-06-01T14:17:47;3.55;;;3.25;;
20318;SDS011;10317;47.254;11.314;2023-06-01T14:20:15;3.97;;;3.30;;
20318;SDS011;10317;47.254;11.314;2023-06-01T14:22:41;4.03;;;3.22;;
20318;SDS011;10317;47.254;11.314;2023-06-01T14:25:07;4.30;;;3.75;;
20318;SDS011;10317;47.254;11.314;2023-06-01T14:27:32;3.53;;;3.05;;
20318;SDS011;10317;47.254;11.314;2023-06-01T14:29:58;3.50;;;2.70;;
20318;SDS011;10317;47.254;11.314;2023-06-01T14:32:27;3.38;;;3.13;;
20318;SDS011;10317;47.254;11.314;2023-06-01T14:34:53;3.75;;;3.22;;
20318;SDS011;10317;47.254;11.314;2023-06-01T14:37:19;4.97;;;3.05;;
20318;SDS011;10317;47.254;11.314;2023-06-01T14:39:44;4.45;;;3.53;;
20318;SDS011;10317;47.254;11.314;2023-06-01T14:42:11;4.25;;;3.28;;
20318;SDS011;10317;47.254;11.314;2023-06-01T14:44:37;6.60;;;3.33;;
20318;SDS011;10317;47.254;11.314;2023-06-01T14:47:03;3.63;;;3.33;;
20318;SDS011;10317;47.254;11.314;2023-06-01T14:49:28;6.65;;;4.00;;
20318;SDS011;10317;47.254;11.314;2023-06-01T14:51:54;9.30;;;3.97;;
20318;SDS011;10317;47.254;11.314;2023-06-01T14:54:20;4.88;;;4.32;;
20318;SDS011;10317;47.254;11.314;2023-06-01T14:56:46;6.25;;;4.20;;
20318;SDS011;10317;47.254;11.314;2023-06-01T14:59:11;11.07;;;4.35;;
20318;SDS011;10317;47.254;11.314;2023-06-01T15:01:37;5.15;;;3.90;;